Time;durP1;ratioP1;P1;durP2;ratioP2;P2;SDS_P1;SDS_P2;PMS_P1;PMS_P2;Temp;Humidity;BMP_temperature;BMP_pressure;BME280_temperature;BME280_humidity;BME280_pressure;Samples;Min_cycle;Max_cycle;Signal;HPM_P1;HPM_P2
2023/08/28 06:49:54;;;;;;;17.10;9.10;;;;;;;27.48;58.71;98778.23;80186;1302;3013006;-68
2023/08/28 06:52:20;;;;;;;16.10;8.70;;;;;;;27.62;58.01;98777.27;79311;1303;3012935;-68
2023/08/28 06:54:47;;;;;;;12.40;9.00;;;;;;;27.60;57.59;98782.52;79340;1304;3013237;-70
2023/08/28 06:57:15;;;;;;;11.70;8.90;;;;;;;27.67;57.68;98779.65;78123;1304;3028098;-71
2023/08/28 06:59:41;;;;;;;12.70;7.90;;;;;;;27.73;57.50;98785.03;79454;1302;3012905;-67
2023/08/28 07:02:09;;;;;;;12.90;8.80;;;;;;;27.77;57.00;98785.60;78206;1303;3011435;-68
2023/08/28 07:04:37;;;;;;;16.70;8.40;;;;;;;27.85;57.30;98784.05;78357;1299;3049431;-68
2023/08/28 07:07:03;;;;;;;24.70;9.30;;;;;;;27.91;56.69;98794.98;79530;1301;3018401;-69
2023/08/28 07:09:30;;;;;;;16.10;9.00;;;;;;;27.89;56.85;98794.64;79374;1301;3011572;-68
2023/08/28 07:11:58;;;;;;;10.90;8.20;;;;;;;27.91;56.64;98797.78;78211;1308;3025961;-70
2023/08/28 07:14:25;;;;;;;14.30;8.90;;;;;;;27.93;56.56;98799.91;79378;1301;3013346;-67
2023/08/28 07:16:51;;;;;;;12.20;8.50;;;;;;;28.06;56.85;98799.55;79446;1299;3011872;-70
2023/08/28 07:19:19;;;;;;;13.30;8.10;;;;;;;28.17;56.51;98800.98;78244;1301;3026254;-68
2023/08/28 07:21:46;;;;;;;12.50;7.80;;;;;;;28.22;55.46;98801.52;79534;1301;3013497;-65
2023/08/28 07:24:12;;;;;;;13.50;8.20;;;;;;;28.20;54.99;98800.30;79448;1301;3011634;-68
2023/08/28 07:26:40;;;;;;;13.60;7.40;;;;;;;28.18;55.09;98799.94;78208;1301;3028146;-66
2023/08/28 07:29:07;;;;;;;12.50;7.50;;;;;;;28.25;55.18;98796.58;79559;1296;3013027;-70
2023/08/28 07:31:34;;;;;;;12.80;7.40;;;;;;;28.39;54.63;98797.30;79458;1298;3013259;-66
2023/08/28 07:34:04;;;;;;;9.70;6.40;;;;;;;28.45;53.81;98794.55;78203;1300;3028326;-68
2023/08/28 07:36:31;;;;;;;11.50;6.50;;;;;;;28.54;53.53;98788.30;79516;1301;3011567;-68
2023/08/28 07:39:00;;;;;;;12.00;7.00;;;;;;;28.65;53.02;98787.44;79005;1301;3013044;-65
2023/08/28 07:41:26;;;;;;;16.80;7.70;;;;;;;28.56;52.74;98785.91;79475;1301;3013564;-73
2023/08/28 07:43:53;;;;;;;10.00;6.60;;;;;;;28.59;52.40;98786.95;79509;1301;3011682;-70
2023/08/28 07:46:21;;;;;;;11.80;6.50;;;;;;;28.59;52.00;98784.84;78356;1296;3026676;-72
2023/08/28 07:48:47;;;;;;;12.90;7.10;;;;;;;28.70;52.50;98785.65;79479;1295;3011898;-69
2023/08/28 07:51:14;;;;;;;14.40;7.10;;;;;;;28.80;52.67;98782.30;79456;1300;3011861;-67
2023/08/28 07:53:42;;;;;;;17.10;7.30;;;;;;;28.84;52.90;98782.73;78167;1296;3026575;-70
2023/08/28 07:56:10;;;;;;;14.10;7.60;;;;;;;28.85;53.20;98778.01;79840;1301;3013465;-69
2023/08/28 07:58:37;;;;;;;16.30;7.50;;;;;;;28.86;53.44;98773.86;79871;1295;3011783;-69
2023/08/28 08:01:05;;;;;;;14.50;8.10;;;;;;;28.90;53.64;98775.73;78217;1296;3050618;-70
2023/08/28 08:03:32;;;;;;;11.80;8.10;;;;;;;28.86;53.97;98774.77;79490;1301;3013445;-69
2023/08/28 08:06:00;;;;;;;14.50;8.50;;;;;;;28.82;53.81;98770.27;79461;1296;3011927;-67
2023/08/28 08:08:28;;;;;;;17.50;7.50;;;;;;;28.92;53.58;98767.82;78151;1301;3049668;-68
2023/08/28 08:10:54;;;;;;;12.70;8.50;;;;;;;28.92;52.40;98768.04;79794;1302;3012889;-71
2023/08/28 08:13:21;;;;;;;12.30;8.20;;;;;;;28.92;53.03;98768.20;79443;1297;3011711;-69
2023/08/28 08:15:48;;;;;;;14.40;9.20;;;;;;;28.95;53.25;98765.46;78147;1299;3026807;-68
2023/08/28 08:18:15;;;;;;;13.70;9.00;;;;;;;29.05;53.54;98762.24;79253;1300;3013419;-66
2023/08/28 08:20:41;;;;;;;16.00;9.10;;;;;;;29.18;53.14;98762.42;79485;1298;3011593;-67
2023/08/28 08:23:09;;;;;;;16.80;9.80;;;;;;;29.34;53.21;98758.54;78138;1301;3026596;-67
2023/08/28 08:25:36;;;;;;;15.30;9.30;;;;;;;29.36;52.88;98759.11;79511;1301;3018377;-70
2023/08/28 08:28:03;;;;;;;16.60;9.50;;;;;;;29.23;52.87;98765.31;79376;1301;3012899;-71
2023/08/28 08:30:31;;;;;;;16.60;9.60;;;;;;;29.31;53.29;98755.04;78218;1300;3028545;-69
2023/08/28 08:32:58;;;;;;;12.80;9.00;;;;;;;29.44;52.77;98754.70;79306;1299;3013206;-65
2023/08/28 08:35:24;;;;;;;14.00;9.20;;;;;;;29.51;52.23;98754.72;79250;1301;3011434;-66
2023/08/28 08:37:52;;;;;;;14.50;8.60;;;;;;;29.59;51.69;98755.23;78352;1300;3026728;-66
2023/08/28 08:40:19;;;;;;;14.10;8.90;;;;;;;29.73;51.25;98750.16;79393;1301;3013350;-64
2023/08/28 08:42:46;;;;;;;15.50;9.00;;;;;;;29.83;51.26;98750.11;79561;1298;3011777;-67
2023/08/28 08:45:14;;;;;;;16.50;8.60;;;;;;;29.82;50.66;98747.89;78173;1299;3026587;-65
2023/08/28 08:47:41;;;;;;;17.20;8.20;;;;;;;29.95;50.49;98745.77;79352;1296;3012930;-69
2023/08/28 08:50:09;;;;;;;12.90;7.80;;;;;;;30.06;49.09;98745.02;79149;1299;3011835;-65
2023/08/28 08:52:38;;;;;;;14.50;8.60;;;;;;;30.13;49.09;98739.20;78124;1301;3049896;-68
2023/08/28 08:55:11;;;;;;;15.80;8.00;;;;;;;30.21;49.28;98731.41;79344;1298;3013019;-68
2023/08/28 08:57:43;;;;;;;12.40;7.90;;;;;;;30.32;49.02;98735.48;78213;1301;3068402;-65
2023/08/28 09:00:12;;;;;;;16.80;7.90;;;;;;;30.27;48.02;98736.91;79293;1298;3011611;-64
2023/08/28 09:02:40;;;;;;;12.50;7.20;;;;;;;30.16;47.54;98734.63;77961;1301;3056188;-67
2023/08/28 09:05:09;;;;;;;12.10;7.20;;;;;;;30.21;47.70;98731.04;79387;1299;3012883;-61
2023/08/28 09:07:37;;;;;;;10.10;6.60;;;;;;;30.28;47.63;98728.36;79315;1295;3011671;-65
2023/08/28 09:10:06;;;;;;;13.10;7.80;;;;;;;30.52;48.04;98724.90;78154;1298;3052308;-67
2023/08/28 09:12:32;;;;;;;11.10;7.80;;;;;;;30.68;47.49;98732.51;79537;1299;3013120;-66
2023/08/28 09:14:59;;;;;;;13.40;7.30;;;;;;;30.50;47.33;98730.38;79421;1298;3013282;-63
2023/08/28 09:17:27;;;;;;;12.30;7.70;;;;;;;30.42;47.75;98727.73;78196;1298;3056659;-65
2023/08/28 09:19:53;;;;;;;12.00;7.50;;;;;;;30.49;47.76;98724.78;79544;1296;3020533;-63
2023/08/28 09:22:22;;;;;;;13.00;7.50;;;;;;;30.50;47.61;98724.98;79300;1296;3011917;-65
2023/08/28 09:24:51;;;;;;;8.90;7.10;;;;;;;30.55;47.53;98717.65;78095;1301;3052139;-70
2023/08/28 09:27:18;;;;;;;11.00;5.70;;;;;;;30.74;47.10;98715.52;79704;1298;3013160;-64
2023/08/28 09:29:45;;;;;;;8.90;6.20;;;;;;;30.87;46.14;98717.19;79538;1295;3011819;-64
2023/08/28 09:32:13;;;;;;;10.80;5.80;;;;;;;31.04;46.41;98713.38;78143;1295;3056118;-66
2023/08/28 09:34:40;;;;;;;11.10;5.90;;;;;;;31.15;45.63;98708.20;79736;1298;3012858;-66
2023/08/28 09:37:11;;;;;;;11.60;6.00;;;;;;;31.18;45.14;98711.73;79661;1296;3012972;-65
2023/08/28 09:39:40;;;;;;;10.40;5.80;;;;;;;31.26;44.72;98711.10;78422;1298;3052469;-66
2023/08/28 09:42:08;;;;;;;11.40;5.90;;;;;;;31.18;44.71;98714.48;79452;1295;3011640;-65
2023/08/28 09:44:37;;;;;;;7.80;5.80;;;;;;;31.13;44.87;98712.06;79052;1295;3012933;-66
2023/08/28 09:47:04;;;;;;;15.10;6.10;;;;;;;31.35;44.98;98710.52;79305;1295;3013013;-64
2023/08/28 09:49:31;;;;;;;12.40;6.00;;;;;;;31.36;44.20;98710.91;79400;1300;3012952;-66
2023/08/28 09:52:00;;;;;;;12.60;5.90;;;;;;;31.52;44.51;98710.19;78019;1301;3026416;-67
2023/08/28 09:54:26;;;;;;;7.70;5.50;;;;;;;31.44;43.62;98712.33;79387;1301;3013225;-64
2023/08/28 09:56:53;;;;;;;10.30;5.90;;;;;;;31.49;43.68;98713.88;79319;1300;3011602;-62
2023/08/28 09:59:20;;;;;;;12.30;5.60;;;;;;;31.61;43.65;98711.41;78234;1298;3068837;-64
2023/08/28 10:01:47;;;;;;;10.80;6.30;;;;;;;31.76;43.52;98710.13;79280;1295;3013612;-65
2023/08/28 10:04:14;;;;;;;11.00;6.00;;;;;;;31.85;43.26;98706.48;79263;1300;3013413;-65
2023/08/28 10:06:49;;;;;;;10.10;5.10;;;;;;;31.94;43.14;98706.61;78145;1295;3017837;-64
2023/08/28 10:09:18;;;;;;;13.80;6.10;;;;;;;31.81;42.60;98706.36;78719;1301;3011973;-64
2023/08/28 10:11:45;;;;;;;10.30;6.00;;;;;;;31.81;42.68;98699.16;79307;1301;3013937;-66
2023/08/28 10:14:12;;;;;;;9.30;5.50;;;;;;;31.88;42.52;98698.11;79266;1300;3013231;-63
2023/08/28 10:16:50;;;;;;;8.90;5.50;;;;;;;31.81;42.36;98695.95;78174;1301;3060365;-67
2023/08/28 10:19:21;;;;;;;7.80;5.50;;;;;;;31.77;42.49;98695.15;78077;1301;3051592;-63
2023/08/28 10:21:48;;;;;;;8.60;6.00;;;;;;;31.96;42.50;98693.23;79535;1294;3011319;-64
2023/08/28 10:24:17;;;;;;;14.70;6.10;;;;;;;32.07;42.35;98692.91;78885;1295;3011865;-65
2023/08/28 10:26:44;;;;;;;10.10;6.00;;;;;;;32.18;42.24;98693.98;79471;1295;3013556;-65
2023/08/28 10:29:11;;;;;;;7.60;6.00;;;;;;;31.97;41.78;98691.77;79425;1295;3011831;-67
2023/08/28 10:31:39;;;;;;;11.70;6.60;;;;;;;32.01;42.00;98692.20;78209;1301;3053064;-66
2023/08/28 10:34:06;;;;;;;11.00;5.90;;;;;;;32.07;41.62;98690.58;79488;1298;3013483;-64
2023/08/28 10:36:33;;;;;;;7.50;5.90;;;;;;;32.12;41.54;98688.80;79288;1295;3013536;-65
2023/08/28 10:39:01;;;;;;;12.00;5.70;;;;;;;32.19;41.71;98680.48;78060;1301;3041412;-63
2023/08/28 10:41:28;;;;;;;10.50;5.50;;;;;;;32.33;41.78;98684.23;79451;1295;3013931;-64
2023/08/28 10:43:55;;;;;;;9.10;5.70;;;;;;;32.34;41.38;98681.59;79221;1301;3011770;-65
2023/08/28 10:46:23;;;;;;;12.80;5.90;;;;;;;32.29;41.44;98678.54;78103;1301;3026201;-65
2023/08/28 10:48:56;;;;;;;8.60;5.40;;;;;;;32.42;41.41;98674.81;79536;1301;3013006;-65
2023/08/28 10:51:35;;;;;;;;;;;;;;;32.60;41.19;98674.71;78230;1298;3056473;-63
2023/08/28 10:54:04;;;;;;;10.80;5.80;;;;;;;32.68;40.87;98672.73;78160;1298;3050095;-63
2023/08/28 10:56:32;;;;;;;10.70;5.80;;;;;;;32.86;41.14;98669.71;79498;1295;3013282;-64
2023/08/28 10:59:19;;;;;;;11.10;5.50;;;;;;;33.05;40.57;98671.23;79098;1298;3011299;-62
2023/08/28 11:01:57;;;;;;;11.10;5.50;;;;;;;32.99;40.13;98674.55;78380;1301;3052987;-64
2023/08/28 11:04:33;;;;;;;11.00;5.50;;;;;;;33.11;39.86;98674.91;78320;1298;3052011;-64
2023/08/28 11:07:00;;;;;;;8.10;5.30;;;;;;;33.14;39.18;98680.27;78195;1295;3059889;-63
2023/08/28 11:09:30;;;;;;;9.40;5.70;;;;;;;33.13;39.38;98668.73;79304;1295;3013661;-64
2023/08/28 11:11:59;;;;;;;7.20;5.80;;;;;;;33.22;39.06;98663.78;79398;1295;3011632;-63
2023/08/28 11:14:35;;;;;;;8.00;5.40;;;;;;;33.36;39.45;98663.48;78440;1298;3053933;-64
2023/08/28 11:17:10;;;;;;;9.20;5.70;;;;;;;33.21;39.24;98666.52;79047;1298;3011560;-65
2023/08/28 11:20:06;;;;;;;8.00;5.80;;;;;;;33.41;39.51;98659.15;79295;1300;3011635;-65
2023/08/28 11:22:41;;;;;;;10.40;5.70;;;;;;;33.43;39.09;98660.04;78147;1300;3052978;-65
2023/08/28 11:25:12;;;;;;;11.50;5.30;;;;;;;33.31;38.76;98658.27;78757;1300;3011889;-64
2023/08/28 11:27:48;;;;;;;9.00;5.90;;;;;;;33.08;39.14;98654.00;79397;1300;3012987;-63
2023/08/28 11:30:19;;;;;;;8.10;5.50;;;;;;;33.25;38.86;98655.66;78360;1301;3051930;-62
2023/08/28 11:32:49;;;;;;;13.80;6.10;;;;;;;33.49;38.73;98653.58;80525;1295;3011353;-61
2023/08/28 11:35:17;;;;;;;7.60;5.50;;;;;;;33.66;38.46;98650.95;78157;1296;3049005;-63
2023/08/28 11:38:03;;;;;;;8.70;6.00;;;;;;;33.69;38.26;98651.35;79392;1296;3013091;-64
2023/08/28 11:40:31;;;;;;;11.80;5.90;;;;;;;33.62;38.44;98649.69;78341;1299;3052729;-65
2023/08/28 11:43:08;;;;;;;15.30;5.70;;;;;;;33.81;38.00;98648.75;79353;1298;3018434;-64
2023/08/28 11:45:36;;;;;;;10.00;5.40;;;;;;;33.96;37.79;98654.12;78105;1298;3052969;-63
2023/08/28 11:48:06;;;;;;;10.00;5.10;;;;;;;33.72;37.75;98656.77;79402;1294;3018356;-62
2023/08/28 11:50:35;;;;;;;9.30;5.10;;;;;;;33.19;38.69;98658.77;78783;1296;3011620;-64
2023/08/28 11:53:01;;;;;;;9.60;5.50;;;;;;;33.15;38.90;98654.81;79365;1296;3013012;-64
2023/08/28 11:55:33;;;;;;;11.30;5.40;;;;;;;33.21;39.01;98647.52;79400;1297;3013126;-65
2023/08/28 11:58:04;;;;;;;10.90;5.70;;;;;;;33.18;39.10;98647.87;78165;1298;3053348;-64
2023/08/28 12:00:31;;;;;;;9.40;5.30;;;;;;;33.09;38.95;98645.50;79350;1300;3013137;-64
2023/08/28 12:02:59;;;;;;;6.90;5.10;;;;;;;33.18;38.76;98646.07;78222;1298;3027195;-63
2023/08/28 12:05:25;;;;;;;10.80;5.30;;;;;;;33.27;38.62;98642.55;79402;1295;3012977;-67
2023/08/28 12:07:52;;;;;;;5.70;5.00;;;;;;;33.44;38.41;98648.66;79327;1298;3012982;-64
2023/08/28 12:10:21;;;;;;;11.80;5.30;;;;;;;33.32;37.83;98656.36;78141;1298;3026393;-65
2023/08/28 12:12:54;;;;;;;8.70;5.40;;;;;;;33.25;37.71;98651.30;79606;1298;3013963;-65
2023/08/28 12:15:32;;;;;;;10.60;5.40;;;;;;;33.37;37.90;98644.36;78116;1298;3060084;-66
2023/08/28 12:18:03;;;;;;;7.80;5.30;;;;;;;33.42;37.89;98636.30;78347;1298;3051455;-65
2023/08/28 12:20:34;;;;;;;7.20;5.30;;;;;;;33.42;38.08;98636.45;80574;1295;3012967;-64
2023/08/28 12:23:02;;;;;;;7.20;5.10;;;;;;;33.46;37.80;98636.30;78073;1298;3048438;-63
2023/08/28 12:25:34;;;;;;;10.20;5.30;;;;;;;33.61;37.83;98630.45;79278;1296;3018503;-63
2023/08/28 12:28:11;;;;;;;14.20;5.60;;;;;;;33.89;37.10;98631.54;78115;1298;3051647;-63
2023/08/28 12:30:39;;;;;;;11.40;5.20;;;;;;;34.08;36.59;98635.73;78228;1296;3052510;-65
2023/08/28 12:33:07;;;;;;;12.70;5.50;;;;;;;34.25;36.20;98635.94;79641;1295;3013194;-65
2023/08/28 12:35:37;;;;;;;10.90;5.30;;;;;;;34.36;36.02;98633.76;79360;1298;3014013;-66
2023/08/28 12:38:05;;;;;;;8.70;5.10;;;;;;;34.51;35.69;98631.05;78191;1298;3040741;-64
2023/08/28 12:40:35;;;;;;;9.50;5.40;;;;;;;34.49;35.30;98632.02;79279;1295;3013187;-64
2023/08/28 12:43:10;;;;;;;9.10;5.50;;;;;;;34.47;35.28;98629.73;78918;1295;3011927;-65
2023/08/28 12:45:39;;;;;;;10.20;4.90;;;;;;;34.36;35.51;98634.36;79057;1298;3011847;-64
2023/08/28 12:48:06;;;;;;;7.70;5.20;;;;;;;34.56;35.48;98635.54;79263;1301;3013458;-63
2023/08/28 12:50:35;;;;;;;10.10;5.10;;;;;;;34.66;35.05;98635.31;79278;1294;3012666;-64
2023/08/28 12:53:04;;;;;;;5.70;4.90;;;;;;;34.75;34.57;98637.06;78196;1294;3051254;-62
2023/08/28 12:55:31;;;;;;;11.20;5.40;;;;;;;34.70;34.75;98637.06;79424;1295;3013474;-63
2023/08/28 12:57:57;;;;;;;6.50;5.40;;;;;;;34.73;34.50;98639.30;79404;1296;3013147;-62
2023/08/28 13:00:26;;;;;;;8.00;4.80;;;;;;;34.75;34.97;98632.15;78178;1298;3050515;-62
2023/08/28 13:02:53;;;;;;;9.00;5.10;;;;;;;34.93;34.57;98635.73;79571;1298;3013537;-65
2023/08/28 13:05:20;;;;;;;8.00;5.40;;;;;;;35.07;34.32;98633.65;79356;1298;3011885;-64
2023/08/28 13:07:48;;;;;;;10.40;5.30;;;;;;;35.02;34.19;98632.34;78297;1298;3051159;-64
2023/08/28 13:10:15;;;;;;;9.40;5.30;;;;;;;34.75;34.83;98633.08;79315;1295;3013399;-62
2023/08/28 13:12:41;;;;;;;11.10;5.10;;;;;;;35.01;34.73;98628.96;79439;1298;3011627;-66
2023/08/28 13:15:10;;;;;;;13.30;5.70;;;;;;;35.17;34.38;98628.83;78345;1298;3025953;-64
2023/08/28 13:17:45;;;;;;;10.50;5.40;;;;;;;35.21;34.12;98624.52;78880;1301;3011709;-68
2023/08/28 13:20:11;;;;;;;7.50;5.30;;;;;;;35.38;34.18;98618.61;79619;1298;3018376;-64
2023/08/28 13:22:38;;;;;;;7.90;5.20;;;;;;;35.42;33.70;98616.52;79382;1294;3013219;-64
2023/08/28 13:25:06;;;;;;;11.60;5.60;;;;;;;35.46;33.80;98611.80;78176;1298;3028488;-65
2023/08/28 13:27:33;;;;;;;5.70;4.70;;;;;;;35.55;33.87;98608.12;79471;1295;3013720;-63
2023/08/28 13:30:00;;;;;;;8.30;5.10;;;;;;;35.33;33.66;98610.52;79653;1296;3012291;-64
2023/08/28 13:32:28;;;;;;;11.80;5.60;;;;;;;35.21;34.21;98610.86;78207;1298;3050230;-67
2023/08/28 13:34:54;;;;;;;8.90;5.40;;;;;;;35.11;34.18;98605.36;79388;1298;3019058;-63
2023/08/28 13:37:21;;;;;;;8.40;5.30;;;;;;;35.01;34.42;98596.44;79458;1298;3011908;-65
2023/08/28 13:39:49;;;;;;;10.40;5.60;;;;;;;35.24;34.57;98601.14;78264;1295;3026701;-71
2023/08/28 13:42:16;;;;;;;12.30;5.60;;;;;;;35.58;34.23;98597.50;79581;1295;3018543;-70
2023/08/28 13:44:42;;;;;;;9.30;5.90;;;;;;;35.71;34.01;98597.34;79666;1295;3013565;-72
2023/08/28 13:47:10;;;;;;;9.80;5.70;;;;;;;35.83;34.28;98593.86;78358;1298;3026445;-69
2023/08/28 13:49:37;;;;;;;11.10;5.50;;;;;;;35.97;34.16;98596.05;79688;1298;3019192;-68
2023/08/28 13:52:04;;;;;;;10.50;5.70;;;;;;;35.98;34.03;98597.89;79630;1298;3012009;-68
2023/08/28 13:54:31;;;;;;;9.70;5.70;;;;;;;36.08;33.96;98594.34;78351;1298;3028422;-68
2023/08/28 13:56:58;;;;;;;9.20;5.40;;;;;;;36.13;33.76;98600.27;79575;1298;3014021;-68
2023/08/28 13:59:24;;;;;;;9.90;4.80;;;;;;;36.07;32.92;98603.36;79556;1295;3013667;-66
2023/08/28 14:01:52;;;;;;;11.70;5.60;;;;;;;35.96;33.11;98601.73;78392;1298;3017721;-64
2023/08/28 14:04:19;;;;;;;8.50;5.20;;;;;;;36.02;33.61;98603.40;79622;1298;3013296;-72
2023/08/28 14:06:45;;;;;;;9.20;5.40;;;;;;;36.17;33.80;98606.27;79580;1295;3013035;-68
2023/08/28 14:09:13;;;;;;;8.40;5.30;;;;;;;36.39;33.34;98594.45;78388;1294;3027431;-69
2023/08/28 14:11:40;;;;;;;13.30;5.20;;;;;;;36.45;33.12;98594.88;79626;1296;3012983;-69
2023/08/28 14:14:07;;;;;;;9.20;5.10;;;;;;;36.58;33.09;98595.39;79553;1298;3011596;-68
2023/08/28 14:16:35;;;;;;;12.50;5.40;;;;;;;36.71;32.48;98590.30;78371;1298;3017893;-68
2023/08/28 14:19:02;;;;;;;8.00;5.10;;;;;;;36.85;32.03;98591.63;79645;1299;3012898;-68
2023/08/28 14:21:28;;;;;;;6.40;4.70;;;;;;;36.85;31.87;98590.80;79583;1298;3011626;-70
2023/08/28 14:23:56;;;;;;;12.30;4.90;;;;;;;36.89;31.82;98591.48;78371;1296;3018071;-68
2023/08/28 14:26:23;;;;;;;17.30;5.20;;;;;;;36.87;32.02;98593.41;79606;1298;3013064;-65
2023/08/28 14:28:51;;;;;;;9.40;5.20;;;;;;;36.89;31.93;98588.96;79568;1298;3014205;-66
2023/08/28 14:31:19;;;;;;;8.00;5.00;;;;;;;36.87;32.00;98585.65;78406;1298;3050248;-69
2023/08/28 14:33:45;;;;;;;10.40;5.30;;;;;;;36.73;32.42;98588.09;81010;1294;3018428;-69
2023/08/28 14:36:12;;;;;;;9.20;5.10;;;;;;;36.75;32.47;98590.92;79090;1299;3014037;-69
2023/08/28 14:38:40;;;;;;;8.60;5.20;;;;;;;36.79;32.43;98585.70;78019;1303;3027725;-69
2023/08/28 14:41:07;;;;;;;11.80;5.50;;;;;;;36.84;31.91;98582.67;79175;1303;3012939;-69
2023/08/28 14:43:33;;;;;;;10.20;5.30;;;;;;;36.81;32.25;98586.07;79201;1301;3011623;-70
2023/08/28 14:46:01;;;;;;;8.60;5.10;;;;;;;36.84;32.13;98584.48;77909;1304;3026326;-70
2023/08/28 14:48:28;;;;;;;9.80;5.10;;;;;;;36.89;31.88;98584.63;79189;1303;3013836;-68
2023/08/28 14:50:55;;;;;;;12.40;5.10;;;;;;;36.66;32.28;98585.05;79203;1304;3011755;-68
2023/08/28 14:53:23;;;;;;;9.70;4.70;;;;;;;36.76;31.70;98585.17;77957;1303;3027966;-71
2023/08/28 14:55:51;;;;;;;7.70;5.10;;;;;;;36.80;31.83;98576.83;79376;1301;3013274;-69
2023/08/28 14:58:17;;;;;;;9.30;5.10;;;;;;;36.70;32.07;98575.77;79190;1301;3012899;-67
2023/08/28 15:00:50;;;;;;;13.00;5.30;;;;;;;36.68;32.42;98576.20;77819;1301;3050046;-66
2023/08/28 15:03:18;;;;;;;9.10;5.30;;;;;;;36.64;32.54;98577.28;79090;1300;3011644;-62
2023/08/28 15:05:46;;;;;;;8.70;5.40;;;;;;;36.55;32.76;98578.02;78001;1304;3053319;-65
2023/08/28 15:08:12;;;;;;;6.20;5.20;;;;;;;36.51;32.87;98577.39;79020;1303;3018407;-70
2023/08/28 15:10:39;;;;;;;6.70;5.20;;;;;;;36.48;32.80;98579.45;79369;1300;3013156;-69
2023/08/28 15:13:07;;;;;;;9.20;5.40;;;;;;;36.41;33.32;98578.41;78002;1303;3029132;-74
2023/08/28 15:15:34;;;;;;;6.30;5.30;;;;;;;36.34;33.26;98582.21;79280;1303;3013188;-69
2023/08/28 15:18:00;;;;;;;10.80;5.00;;;;;;;36.10;33.12;98584.70;79257;1304;3011948;-70
2023/08/28 15:20:28;;;;;;;12.00;4.90;;;;;;;35.99;33.52;98589.31;78054;1303;3026929;-69
2023/08/28 15:22:55;;;;;;;13.00;5.30;;;;;;;35.89;33.70;98587.66;79178;1306;3013049;-67
2023/08/28 15:25:22;;;;;;;12.90;4.90;;;;;;;35.68;34.17;98589.05;79247;1301;3012746;-70
2023/08/28 15:27:49;;;;;;;7.30;5.10;;;;;;;35.34;34.89;98586.48;77934;1301;3026447;-70
2023/08/28 15:30:16;;;;;;;10.60;5.60;;;;;;;34.96;35.31;98585.77;79189;1301;3013177;-71
2023/08/28 15:32:43;;;;;;;9.20;5.70;;;;;;;34.67;35.67;98590.38;79182;1300;3011629;-68
2023/08/28 15:35:11;;;;;;;8.80;5.30;;;;;;;34.63;35.81;98590.53;78031;1304;3027051;-66
2023/08/28 15:37:37;;;;;;;9.20;5.10;;;;;;;34.53;36.14;98594.46;79276;1303;3013988;-70
2023/08/28 15:40:05;;;;;;;12.20;5.50;;;;;;;34.57;36.05;98592.45;79251;1301;3013462;-70
2023/08/28 15:42:33;;;;;;;9.70;5.50;;;;;;;34.52;36.39;98590.86;77945;1301;3040403;-71
2023/08/28 15:45:00;;;;;;;11.80;5.40;;;;;;;34.38;36.56;98593.14;79155;1303;3013523;-68
2023/08/28 15:47:26;;;;;;;11.40;5.50;;;;;;;34.24;36.98;98595.95;79208;1303;3014106;-71
2023/08/28 15:49:54;;;;;;;11.50;5.50;;;;;;;34.16;36.97;98589.43;77951;1300;3028655;-67
2023/08/28 15:52:21;;;;;;;9.90;5.30;;;;;;;34.07;37.37;98593.11;79239;1301;3012769;-69
2023/08/28 15:54:48;;;;;;;12.20;6.00;;;;;;;33.94;37.81;98592.05;79152;1300;3013760;-69
2023/08/28 15:57:16;;;;;;;9.50;5.70;;;;;;;33.83;38.04;98595.34;77996;1301;3017207;-69
2023/08/28 15:59:46;;;;;;;11.60;6.10;;;;;;;33.70;38.29;98593.95;79155;1301;3013094;-66
2023/08/28 16:02:14;;;;;;;10.00;5.40;;;;;;;33.54;38.71;98595.58;78023;1301;3053336;-71
2023/08/28 16:04:40;;;;;;;9.50;5.40;;;;;;;33.35;39.21;98595.91;79217;1302;3013007;-70
2023/08/28 16:07:07;;;;;;;10.40;6.20;;;;;;;33.14;39.92;98598.38;79182;1303;3013171;-67
2023/08/28 16:09:35;;;;;;;15.10;5.90;;;;;;;32.95;40.20;98597.10;77955;1303;3028517;-70
2023/08/28 16:12:02;;;;;;;9.90;6.10;;;;;;;32.79;40.55;98595.41;79238;1300;3013627;-70
2023/08/28 16:14:29;;;;;;;12.40;6.70;;;;;;;32.65;40.88;98597.34;79136;1301;3011565;-68
2023/08/28 16:16:57;;;;;;;14.10;6.40;;;;;;;32.55;41.51;98598.17;77984;1303;3029272;-68
2023/08/28 16:19:24;;;;;;;12.70;6.30;;;;;;;32.41;41.90;98598.64;79191;1301;3012850;-68
2023/08/28 16:21:50;;;;;;;9.40;6.80;;;;;;;32.26;42.42;98596.60;79069;1306;3011698;-71
2023/08/28 16:24:18;;;;;;;19.80;8.20;;;;;;;32.10;42.77;98595.92;77940;1300;3026288;-69
2023/08/28 16:26:45;;;;;;;16.10;6.90;;;;;;;31.96;43.30;98595.11;79160;1300;3018533;-68
2023/08/28 16:29:11;;;;;;;11.10;6.50;;;;;;;31.77;43.79;98601.64;79224;1300;3011667;-68
2023/08/28 16:31:40;;;;;;;14.20;6.60;;;;;;;31.65;44.32;98602.73;77999;1306;3029244;-68
2023/08/28 16:34:06;;;;;;;14.50;6.40;;;;;;;31.50;44.61;98601.98;79280;1303;3013563;-71
2023/08/28 16:36:33;;;;;;;14.10;6.80;;;;;;;31.40;44.71;98599.13;79307;1300;3013131;-70
2023/08/28 16:39:02;;;;;;;11.70;7.30;;;;;;;31.28;45.38;98604.11;77971;1301;3027056;-69
2023/08/28 16:41:28;;;;;;;11.20;7.70;;;;;;;31.16;45.59;98604.65;79318;1301;3013426;-70
2023/08/28 16:43:55;;;;;;;17.40;8.20;;;;;;;31.01;46.12;98607.19;79187;1303;3011937;-68
2023/08/28 16:46:23;;;;;;;14.70;7.90;;;;;;;30.91;46.20;98609.73;78007;1303;3052752;-69
2023/08/28 16:48:49;;;;;;;16.10;8.40;;;;;;;30.82;46.65;98612.52;79243;1303;3018948;-69
2023/08/28 16:51:18;;;;;;;14.50;8.00;;;;;;;30.76;46.70;98615.55;79130;1299;3011482;-68
2023/08/28 16:53:46;;;;;;;18.20;7.80;;;;;;;30.72;46.35;98614.73;78096;1299;3055913;-65
2023/08/28 16:56:12;;;;;;;17.40;8.10;;;;;;;30.65;46.74;98615.80;79227;1301;3021352;-70
2023/08/28 16:58:39;;;;;;;14.80;8.10;;;;;;;30.56;47.08;98617.56;79196;1302;3011660;-68
2023/08/28 17:01:06;;;;;;;14.50;8.30;;;;;;;30.48;47.19;98622.41;78029;1303;3028654;-67
2023/08/28 17:03:33;;;;;;;22.40;7.60;;;;;;;30.40;47.81;98621.63;79321;1303;3013220;-69
2023/08/28 17:06:00;;;;;;;16.30;7.50;;;;;;;30.29;47.70;98620.30;79228;1303;3011680;-68
2023/08/28 17:08:28;;;;;;;15.30;9.30;;;;;;;30.22;48.26;98620.98;78084;1303;3027327;-66
2023/08/28 17:10:55;;;;;;;17.00;7.70;;;;;;;30.14;48.72;98626.73;79260;1301;3012909;-65
2023/08/28 17:13:22;;;;;;;15.90;7.70;;;;;;;30.06;48.85;98629.93;79176;1301;3011474;-70
2023/08/28 17:15:50;;;;;;;13.50;8.40;;;;;;;29.99;48.93;98634.35;78057;1303;3053117;-69
2023/08/28 17:18:16;;;;;;;14.50;7.60;;;;;;;29.92;49.10;98635.73;79233;1303;3013154;-70
2023/08/28 17:20:43;;;;;;;14.80;8.50;;;;;;;29.86;49.44;98635.15;79225;1303;3012953;-69
2023/08/28 17:23:10;;;;;;;14.90;8.30;;;;;;;29.81;48.87;98635.10;78065;1299;3026328;-68
2023/08/28 17:25:37;;;;;;;19.30;8.50;;;;;;;29.75;49.37;98636.39;79243;1303;3018405;-67
2023/08/28 17:28:04;;;;;;;13.20;8.20;;;;;;;29.69;49.10;98637.98;79250;1301;3011608;-68
2023/08/28 17:30:33;;;;;;;19.00;8.70;;;;;;;29.67;49.19;98635.02;78138;1303;3053494;-66
2023/08/28 17:33:00;;;;;;;17.30;8.70;;;;;;;29.63;49.52;98641.44;79251;1301;3011376;-65
2023/08/28 17:35:29;;;;;;;19.60;8.80;;;;;;;29.58;49.60;98640.45;79257;1301;3013080;-66
2023/08/28 17:37:57;;;;;;;14.90;8.00;;;;;;;29.54;49.58;98639.78;78042;1301;3056630;-74
2023/08/28 17:40:24;;;;;;;16.30;8.00;;;;;;;29.51;49.68;98642.30;79327;1301;3013999;-68
2023/08/28 17:42:51;;;;;;;16.90;8.40;;;;;;;29.49;49.88;98642.95;79239;1304;3011907;-68
2023/08/28 17:45:18;;;;;;;16.60;8.20;;;;;;;29.46;49.74;98644.83;78111;1301;3026694;-67
2023/08/28 17:47:45;;;;;;;16.10;7.90;;;;;;;29.41;49.76;98649.79;79276;1303;3018720;-65
2023/08/28 17:50:11;;;;;;;14.50;8.50;;;;;;;29.37;49.96;98653.86;79253;1303;3011721;-70
2023/08/28 17:52:39;;;;;;;13.40;8.60;;;;;;;29.34;50.07;98654.10;78046;1303;3028097;-68
2023/08/28 17:55:06;;;;;;;14.70;8.30;;;;;;;29.30;50.07;98656.73;79319;1304;3013168;-67
2023/08/28 17:57:33;;;;;;;18.10;7.80;;;;;;;29.26;50.07;98658.20;79275;1300;3011807;-67
2023/08/28 18:00:01;;;;;;;12.00;8.00;;;;;;;29.24;50.30;98656.77;78019;1303;3026350;-68
2023/08/28 18:02:27;;;;;;;18.10;8.20;;;;;;;29.20;50.46;98656.63;79290;1301;3012950;-69
2023/08/28 18:04:54;;;;;;;11.00;8.50;;;;;;;29.16;50.46;98659.52;79263;1303;3011600;-70